createdAt,value
2019-05-11T00:02:01.107Z,16.80
2019-05-11T00:04:29.547Z,18.35
2019-05-11T00:06:58.162Z,18.87
2019-05-11T00:09:26.609Z,19.02
2019-05-11T00:11:55.051Z,19.15
2019-05-11T00:14:23.788Z,19.30
2019-05-11T00:16:52.244Z,17.80
2019-05-11T00:19:20.952Z,19.40
2019-05-11T00:21:50.681Z,18.67
2019-05-11T00:24:19.113Z,19.02
2019-05-11T00:26:47.955Z,19.20
2019-05-11T00:29:17.254Z,20.00
2019-05-11T00:31:46.976Z,19.55
2019-05-11T00:34:15.612Z,18.55
2019-05-11T00:36:45.250Z,18.92
2019-05-11T00:39:13.679Z,19.12
2019-05-11T00:41:42.383Z,17.90
2019-05-11T00:44:14.916Z,18.85
2019-05-11T00:46:43.507Z,20.50
2019-05-11T00:49:12.028Z,18.40
2019-05-11T00:51:41.034Z,18.90
2019-05-11T00:54:11.285Z,19.30
2019-05-11T00:56:40.015Z,18.90
2019-05-11T00:59:21.292Z,19.30
2019-05-11T01:01:39.948Z,19.32
2019-05-11T01:04:09.745Z,18.42
2019-05-11T01:06:39.815Z,19.85
2019-05-11T01:09:08.513Z,20.25
2019-05-11T01:11:37.123Z,20.05
2019-05-11T01:14:06.922Z,20.27
2019-05-11T01:16:35.556Z,20.45
2019-05-11T01:19:04.370Z,20.17
2019-05-11T01:21:33.393Z,18.85
2019-05-11T01:24:01.819Z,20.02
2019-05-11T01:26:30.506Z,19.82
2019-05-11T01:29:00.184Z,20.68
2019-05-11T01:31:28.773Z,21.05
2019-05-11T01:33:57.254Z,20.52
2019-05-11T01:36:28.203Z,20.50
2019-05-11T01:38:56.785Z,19.85
2019-05-11T01:41:25.410Z,21.23
2019-05-11T01:43:55.512Z,20.82
2019-05-11T01:46:24.186Z,19.87
2019-05-11T01:48:52.782Z,19.20
2019-05-11T01:51:22.478Z,20.25
2019-05-11T01:53:51.050Z,20.32
2019-05-11T01:56:19.494Z,19.77
2019-05-11T01:58:49.447Z,20.27
2019-05-11T02:01:18.063Z,21.12
2019-05-11T02:03:46.717Z,41.75
2019-05-11T02:06:16.853Z,36.15
2019-05-11T02:08:45.442Z,21.60
2019-05-11T02:11:16.132Z,19.73
2019-05-11T02:13:45.762Z,19.85
2019-05-11T02:16:14.346Z,19.60
2019-05-11T02:18:42.917Z,19.20
2019-05-11T02:21:11.817Z,18.75
2019-05-11T02:23:40.422Z,21.02
2019-05-11T02:26:09.104Z,21.52
2019-05-11T02:28:40.318Z,19.40
2019-05-11T02:31:08.741Z,20.68
2019-05-11T02:33:38.949Z,20.35
2019-05-11T02:36:09.694Z,19.70
2019-05-11T02:38:39.196Z,21.65
2019-05-11T02:41:07.964Z,21.12
2019-05-11T02:43:36.981Z,19.57
2019-05-11T02:46:05.467Z,20.62
2019-05-11T02:48:34.197Z,20.70
2019-05-11T02:51:03.647Z,19.35
2019-05-11T02:53:34.049Z,19.92
2019-05-11T02:56:05.009Z,20.77
2019-05-11T02:58:33.697Z,20.90
2019-05-11T03:01:02.186Z,20.97
2019-05-11T03:03:32.057Z,20.95
2019-05-11T03:06:00.732Z,21.87
2019-05-11T03:08:29.224Z,21.42
2019-05-11T03:11:00.083Z,21.42
2019-05-11T03:13:28.671Z,22.27
2019-05-11T03:15:57.079Z,21.65
2019-05-11T03:18:39.038Z,22.13
2019-05-11T03:21:07.460Z,21.35
2019-05-11T03:23:36.948Z,20.52
2019-05-11T03:26:12.030Z,22.55
2019-05-11T03:28:40.658Z,22.05
2019-05-11T03:31:09.152Z,23.05
2019-05-11T03:33:37.772Z,22.67
2019-05-11T03:36:06.214Z,22.32
2019-05-11T03:38:34.659Z,22.77
2019-05-11T03:41:03.758Z,23.52
2019-05-11T03:43:32.205Z,22.32
2019-05-11T03:46:00.627Z,22.48
2019-05-11T03:48:29.277Z,23.35
2019-05-11T03:50:57.819Z,23.92
2019-05-11T03:53:27.747Z,24.25
2019-05-11T03:56:05.896Z,23.83
2019-05-11T03:58:40.998Z,25.15
2019-05-11T04:01:09.590Z,22.55
2019-05-11T04:03:38.015Z,23.95
2019-05-11T04:06:06.486Z,23.20
2019-05-11T04:08:37.015Z,24.00
2019-05-11T04:11:05.513Z,21.95
2019-05-11T04:13:35.311Z,22.67
2019-05-11T04:16:05.373Z,23.62
2019-05-11T04:18:33.871Z,22.20
2019-05-11T04:21:02.313Z,23.05
2019-05-11T04:23:31.823Z,23.50
2019-05-11T04:26:00.258Z,23.62
2019-05-11T04:28:29.792Z,22.75
2019-05-11T04:30:59.898Z,25.23
2019-05-11T04:33:33.012Z,25.68
2019-05-11T04:35:59.674Z,24.82
2019-05-11T04:38:31.275Z,31.37
2019-05-11T04:40:59.728Z,35.38
2019-05-11T04:43:28.181Z,34.38
2019-05-11T04:45:59.701Z,30.37
2019-05-11T04:48:30.328Z,35.03
2019-05-11T04:50:58.743Z,50.70
2019-05-11T04:53:28.090Z,28.25
2019-05-11T04:55:56.686Z,26.12
2019-05-11T04:58:25.141Z,25.40
2019-05-11T05:00:54.132Z,24.07
2019-05-11T05:03:39.795Z,23.92
2019-05-11T05:05:56.010Z,24.70
2019-05-11T05:08:26.495Z,23.70
2019-05-11T05:10:58.589Z,29.10
2019-05-11T05:13:29.597Z,26.07
2019-05-11T05:15:55.338Z,23.00
2019-05-11T05:18:23.766Z,21.37
2019-05-11T05:20:52.425Z,19.92
2019-05-11T05:23:20.843Z,19.67
2019-05-11T05:25:49.290Z,20.05
2019-05-11T05:28:18.210Z,20.25
2019-05-11T05:30:46.684Z,19.52
2019-05-11T05:33:15.139Z,18.30
2019-05-11T05:35:43.778Z,19.75
2019-05-11T05:38:12.244Z,19.05
2019-05-11T05:40:40.698Z,18.45
2019-05-11T05:43:09.219Z,17.12
2019-05-11T05:45:37.637Z,18.30
2019-05-11T05:48:06.146Z,18.55
2019-05-11T05:50:36.965Z,19.27
2019-05-11T05:53:05.461Z,18.52
2019-05-11T05:55:33.926Z,20.08
2019-05-11T05:58:02.644Z,17.23
2019-05-11T06:00:31.205Z,18.45
2019-05-11T06:02:59.643Z,18.15
2019-05-11T06:05:28.274Z,17.17
2019-05-11T06:07:56.966Z,17.92
2019-05-11T06:10:25.427Z,16.87
2019-05-11T06:12:54.079Z,17.20
2019-05-11T06:15:22.704Z,17.50
2019-05-11T06:17:51.158Z,19.25
2019-05-11T06:20:19.850Z,48.50
2019-05-11T06:22:48.309Z,22.77
2019-05-11T06:25:17.122Z,23.57
2019-05-11T06:27:45.758Z,21.93
2019-05-11T06:30:14.325Z,22.52
2019-05-11T06:32:42.761Z,24.50
2019-05-11T06:35:11.522Z,24.43
2019-05-11T06:37:40.028Z,24.15
2019-05-11T06:40:08.992Z,25.60
2019-05-11T06:42:39.298Z,46.63
2019-05-11T06:45:08.185Z,26.27
2019-05-11T06:47:37.585Z,26.75
2019-05-11T06:50:06.683Z,26.87
2019-05-11T06:52:35.127Z,26.12
2019-05-11T06:55:03.883Z,26.17
2019-05-11T06:57:32.436Z,31.87
2019-05-11T07:00:00.869Z,25.52
2019-05-11T07:02:29.291Z,24.98
2019-05-11T07:04:58.177Z,25.82
2019-05-11T07:07:26.604Z,24.02
2019-05-11T07:09:55.071Z,28.83
2019-05-11T07:12:27.341Z,31.33
2019-05-11T07:14:54.183Z,24.35
2019-05-11T07:17:24.223Z,26.20
2019-05-11T07:19:57.910Z,27.17
2019-05-11T07:22:26.329Z,27.10
2019-05-11T07:24:54.828Z,27.62
2019-05-11T07:27:23.497Z,28.70
2019-05-11T07:29:52.053Z,30.32
2019-05-11T07:32:25.769Z,31.57
2019-05-11T07:34:50.848Z,31.85
2019-05-11T07:37:19.270Z,33.25
2019-05-11T07:39:48.775Z,33.55
2019-05-11T07:42:20.928Z,36.45
2019-05-11T07:44:49.405Z,35.88
2019-05-11T07:47:18.640Z,40.00
2019-05-11T07:49:48.892Z,38.67
2019-05-11T07:52:18.169Z,41.53
2019-05-11T07:54:52.593Z,40.63
2019-05-11T07:59:48.648Z,41.48
2019-05-11T08:02:18.983Z,41.90
2019-05-11T08:04:49.624Z,43.28
2019-05-11T08:07:18.285Z,42.95
2019-05-11T08:09:48.306Z,44.55
2019-05-11T08:12:19.206Z,45.28
2019-05-11T08:15:00.839Z,46.42
2019-05-11T08:19:51.464Z,42.62
2019-05-11T08:25:01.419Z,47.23
2019-05-11T08:27:31.803Z,44.55
2019-05-11T08:30:02.359Z,44.93
2019-05-11T08:32:31.160Z,42.90
2019-05-11T08:34:59.609Z,44.77
2019-05-11T08:37:28.606Z,58.68
2019-05-11T08:39:58.530Z,44.48
2019-05-11T08:42:28.905Z,40.30
2019-05-11T08:45:15.350Z,40.33
2019-05-11T08:47:28.987Z,40.45
2019-05-11T08:49:58.924Z,40.10
2019-05-11T08:52:28.645Z,40.05
2019-05-11T08:54:57.828Z,39.78
2019-05-11T08:57:28.471Z,39.23
2019-05-11T08:59:58.287Z,42.53
2019-05-11T09:02:27.754Z,40.80
2019-05-11T09:04:58.974Z,38.55
2019-05-11T09:07:30.145Z,40.73
2019-05-11T09:10:00.559Z,40.00
2019-05-11T09:12:29.429Z,41.92
2019-05-11T09:15:01.530Z,39.55
2019-05-11T09:17:30.053Z,42.98
2019-05-11T09:19:59.057Z,41.95
2019-05-11T09:22:28.975Z,41.30
2019-05-11T09:24:58.254Z,42.80
2019-05-11T09:27:28.647Z,41.00
2019-05-11T09:29:59.138Z,39.55
2019-05-11T09:32:28.547Z,38.05
2019-05-11T09:34:58.054Z,37.40
2019-05-11T09:37:29.265Z,38.85
2019-05-11T09:39:58.347Z,38.02
2019-05-11T09:42:28.610Z,36.93
2019-05-11T09:44:58.506Z,34.25
2019-05-11T09:47:27.924Z,34.15
2019-05-11T09:49:58.272Z,32.83
2019-05-11T09:52:32.386Z,32.20
2019-05-11T09:55:00.906Z,32.03
2019-05-11T09:57:29.569Z,32.10
2019-05-11T09:59:59.163Z,32.30
2019-05-11T10:02:28.190Z,29.60
2019-05-11T10:04:57.813Z,29.27
2019-05-11T10:07:28.608Z,29.20
2019-05-11T10:09:58.560Z,29.02
2019-05-11T10:12:28.673Z,26.60
2019-05-11T10:14:59.189Z,26.45
2019-05-11T10:17:28.859Z,27.77
2019-05-11T10:19:58.196Z,28.47
2019-05-11T10:22:28.579Z,29.82
2019-05-11T10:24:58.233Z,29.15
2019-05-11T10:27:28.338Z,28.92
2019-05-11T10:29:58.939Z,29.37
2019-05-11T10:32:28.766Z,29.72
2019-05-11T10:34:58.374Z,30.35
2019-05-11T10:37:28.272Z,28.05
2019-05-11T10:39:57.762Z,28.07
2019-05-11T10:42:28.397Z,26.02
2019-05-11T10:44:58.257Z,25.92
2019-05-11T10:47:27.824Z,26.77
2019-05-11T10:49:57.894Z,25.80
2019-05-11T10:52:28.597Z,26.70
2019-05-11T10:54:58.528Z,25.25
2019-05-11T10:57:33.604Z,26.93
2019-05-11T11:00:02.212Z,24.90
2019-05-11T11:02:30.626Z,21.97
2019-05-11T11:05:00.459Z,22.48
2019-05-11T11:07:29.096Z,20.60
2019-05-11T11:09:58.100Z,20.65
2019-05-11T11:12:27.882Z,23.00
2019-05-11T11:14:58.725Z,20.62
2019-05-11T11:17:28.732Z,21.27
2019-05-11T11:20:08.750Z,28.50
2019-05-11T11:22:43.393Z,21.05
2019-05-11T11:25:38.662Z,19.98
2019-05-11T11:28:08.740Z,23.00
2019-05-11T11:30:39.721Z,20.45
2019-05-11T11:33:08.226Z,19.45
2019-05-11T11:35:38.509Z,20.60
2019-05-11T11:38:09.279Z,21.57
2019-05-11T11:40:38.672Z,22.60
2019-05-11T11:43:08.662Z,23.47
2019-05-11T11:45:40.243Z,24.35
2019-05-11T11:48:09.653Z,20.37
2019-05-11T11:50:38.150Z,19.23
2019-05-11T11:53:08.422Z,18.45
2019-05-11T11:55:38.996Z,20.32
2019-05-11T11:58:08.258Z,20.37
2019-05-11T12:00:39.262Z,22.52
2019-05-11T12:03:08.122Z,16.75
2019-05-11T12:05:38.632Z,14.87
2019-05-11T12:08:09.334Z,15.30
2019-05-11T12:10:38.082Z,12.95
2019-05-11T12:13:08.621Z,11.70
2019-05-11T12:15:39.306Z,12.07
2019-05-11T12:18:08.366Z,11.15
2019-05-11T12:20:39.002Z,11.73
2019-05-11T12:23:08.800Z,11.78
2019-05-11T12:25:40.346Z,11.15
2019-05-11T12:28:08.069Z,11.38
2019-05-11T12:30:37.649Z,11.00
2019-05-11T12:33:08.240Z,9.38
2019-05-11T12:35:37.792Z,9.25
2019-05-11T12:38:07.838Z,9.53
2019-05-11T12:40:38.664Z,8.58
2019-05-11T12:43:08.142Z,9.30
2019-05-11T12:45:37.668Z,10.40
2019-05-11T12:48:08.932Z,9.80
2019-05-11T12:50:37.905Z,9.50
2019-05-11T12:53:08.038Z,9.83
2019-05-11T12:55:37.979Z,10.05
2019-05-11T12:58:08.594Z,10.18
2019-05-11T13:00:39.193Z,9.40
2019-05-11T13:03:08.175Z,8.80
2019-05-11T13:05:37.787Z,8.08
2019-05-11T13:08:07.951Z,7.50
2019-05-11T13:10:37.788Z,9.58
2019-05-11T13:13:08.669Z,8.18
2019-05-11T13:15:38.680Z,7.50
2019-05-11T13:18:08.419Z,7.75
2019-05-11T13:20:37.787Z,7.95
2019-05-11T13:23:07.980Z,7.17
2019-05-11T13:25:38.866Z,10.20
2019-05-11T13:28:08.567Z,11.70
2019-05-11T13:30:41.663Z,9.53
2019-05-11T13:33:10.117Z,10.78
2019-05-11T13:35:38.521Z,9.23
2019-05-11T13:38:08.669Z,10.68
2019-05-11T13:40:38.260Z,9.58
2019-05-11T13:43:08.302Z,9.00
2019-05-11T13:45:38.755Z,8.68
2019-05-11T13:48:10.138Z,9.25
2019-05-11T13:50:38.848Z,9.30
2019-05-11T13:53:07.767Z,9.25
2019-05-11T13:55:38.592Z,8.65
2019-05-11T13:58:08.419Z,10.38
2019-05-11T14:00:38.100Z,8.25
2019-05-11T14:03:08.361Z,9.70
2019-05-11T14:05:38.280Z,9.18
2019-05-11T14:08:08.168Z,9.38
2019-05-11T14:10:38.349Z,9.55
2019-05-11T14:13:09.051Z,9.43
2019-05-11T14:15:37.774Z,8.78
2019-05-11T14:18:09.431Z,9.68
2019-05-11T14:20:37.981Z,19.73
2019-05-11T14:23:07.742Z,23.95
2019-05-11T14:25:38.093Z,12.80
2019-05-11T14:28:10.013Z,10.90
2019-05-11T14:30:38.823Z,10.38
2019-05-11T14:33:08.700Z,15.50
2019-05-11T14:35:39.092Z,15.15
2019-05-11T14:38:08.034Z,9.98
2019-05-11T14:40:38.745Z,8.98
2019-05-11T14:43:08.958Z,8.83
2019-05-11T14:45:38.080Z,9.35
2019-05-11T14:48:22.153Z,9.43
2019-05-11T14:50:38.614Z,15.75
2019-05-11T14:53:08.638Z,9.40
2019-05-11T14:55:38.244Z,8.08
2019-05-11T14:58:08.625Z,9.05
2019-05-11T15:00:39.141Z,18.70
2019-05-11T15:03:07.994Z,10.63
2019-05-11T15:05:37.958Z,11.93
2019-05-11T15:08:08.743Z,12.85
2019-05-11T15:10:38.262Z,13.20
2019-05-11T15:13:08.133Z,11.85
2019-05-11T15:15:36.708Z,18.23
2019-05-11T15:18:05.192Z,11.97
2019-05-11T15:20:48.117Z,13.20
2019-05-11T15:23:18.027Z,14.25
2019-05-11T15:25:48.571Z,16.25
2019-05-11T15:28:18.096Z,15.53
2019-05-11T15:30:48.307Z,140.52
2019-05-11T15:33:18.329Z,43.78
2019-05-11T15:35:47.921Z,34.38
2019-05-11T15:38:17.912Z,24.77
2019-05-11T15:40:48.600Z,16.80
2019-05-11T15:43:17.908Z,14.93
2019-05-11T15:45:48.577Z,34.80
2019-05-11T15:48:18.743Z,19.77
2019-05-11T15:50:48.604Z,17.27
2019-05-11T15:53:18.013Z,17.80
2019-05-11T15:55:47.349Z,20.62
2019-05-11T15:58:21.452Z,12.43
2019-05-11T16:00:48.200Z,13.08
2019-05-11T16:03:18.690Z,16.93
2019-05-11T16:05:47.961Z,17.82
2019-05-11T16:08:18.646Z,13.95
2019-05-11T16:10:48.893Z,10.75
2019-05-11T16:13:18.121Z,10.45
2019-05-11T16:15:47.690Z,10.65
2019-05-11T16:18:18.941Z,9.90
2019-05-11T16:20:48.203Z,10.45
2019-05-11T16:23:20.025Z,21.05
2019-05-11T16:25:48.944Z,10.28
2019-05-11T16:28:19.261Z,10.82
2019-05-11T16:30:48.239Z,36.35
2019-05-11T16:33:17.998Z,10.63
2019-05-11T16:35:49.041Z,11.05
2019-05-11T16:38:18.715Z,10.50
2019-05-11T16:40:48.075Z,10.40
2019-05-11T16:43:18.952Z,10.50
2019-05-11T16:45:54.582Z,35.33
2019-05-11T16:48:23.007Z,17.52
2019-05-11T16:50:53.109Z,11.97
2019-05-11T16:53:21.962Z,20.43
2019-05-11T16:55:50.447Z,48.58
2019-05-11T16:58:19.753Z,20.70
2019-05-11T17:00:49.316Z,10.30
2019-05-11T17:03:18.187Z,7.15
2019-05-11T17:05:48.476Z,18.80
2019-05-11T17:08:18.729Z,7.97
2019-05-11T17:10:58.728Z,5.55
2019-05-11T17:13:27.570Z,4.45
2019-05-11T17:15:58.323Z,4.85
2019-05-11T17:18:28.577Z,4.08
2019-05-11T17:20:58.402Z,3.45
2019-05-11T17:23:30.894Z,3.12
2019-05-11T17:25:58.155Z,2.65
2019-05-11T17:28:26.739Z,2.87
2019-05-11T17:30:55.654Z,2.90
2019-05-11T17:33:25.182Z,2.90
2019-05-11T17:35:58.192Z,3.17
2019-05-11T17:38:28.031Z,3.02
2019-05-11T17:40:57.708Z,2.70
2019-05-11T17:43:28.102Z,3.25
2019-05-11T17:45:58.522Z,3.02
2019-05-11T17:48:28.148Z,2.72
2019-05-11T17:50:58.271Z,2.80
2019-05-11T17:53:28.606Z,3.08
2019-05-11T17:55:57.897Z,24.52
2019-05-11T17:58:26.819Z,26.70
2019-05-11T18:00:55.317Z,12.85
2019-05-11T18:03:23.738Z,3.95
2019-05-11T18:05:52.611Z,9.13
2019-05-11T18:08:21.106Z,3.92
2019-05-11T18:10:49.566Z,3.12
2019-05-11T18:13:18.063Z,2.62
2019-05-11T18:15:46.800Z,2.87
2019-05-11T18:18:15.240Z,2.80
2019-05-11T18:20:43.889Z,2.95
2019-05-11T18:23:12.328Z,4.80
2019-05-11T18:25:40.819Z,5.75
2019-05-11T18:28:09.430Z,5.45
2019-05-11T18:30:38.787Z,3.50
2019-05-11T18:33:08.374Z,4.40
2019-05-11T18:35:37.142Z,5.60
2019-05-11T18:38:08.338Z,8.08
2019-05-11T18:40:38.150Z,6.85
2019-05-11T18:43:08.592Z,18.25
2019-05-11T18:45:38.271Z,11.48
2019-05-11T18:48:08.012Z,7.28
2019-05-11T18:50:38.452Z,4.17
2019-05-11T18:53:09.140Z,4.10
2019-05-11T18:55:38.330Z,5.10
2019-05-11T18:58:06.772Z,4.60
2019-05-11T19:00:35.314Z,3.35
2019-05-11T19:03:04.042Z,2.95
2019-05-11T19:05:32.862Z,3.75
2019-05-11T19:08:01.348Z,3.33
2019-05-11T19:10:30.205Z,2.52
2019-05-11T19:12:59.191Z,3.02
2019-05-11T19:15:27.648Z,3.65
2019-05-11T19:17:58.092Z,2.50
2019-05-11T19:20:28.346Z,2.42
2019-05-11T19:22:58.997Z,3.10
2019-05-11T19:25:27.774Z,6.28
2019-05-11T19:27:56.203Z,3.00
2019-05-11T19:30:24.747Z,4.05
2019-05-11T19:32:53.628Z,3.27
2019-05-11T19:35:41.469Z,3.35
2019-05-11T19:38:12.959Z,2.55
2019-05-11T19:40:42.927Z,2.60
2019-05-11T19:43:11.427Z,2.15
2019-05-11T19:45:42.286Z,2.45
2019-05-11T19:48:10.825Z,2.17
2019-05-11T19:50:40.833Z,2.40
2019-05-11T19:53:09.536Z,7.17
2019-05-11T19:55:37.954Z,38.40
2019-05-11T19:58:06.449Z,4.25
2019-05-11T20:00:37.881Z,2.90
2019-05-11T20:03:08.803Z,2.72
2019-05-11T20:05:38.084Z,2.40
2019-05-11T20:08:07.956Z,3.98
2019-05-11T20:10:38.319Z,4.10
2019-05-11T20:13:08.168Z,3.42
2019-05-11T20:15:38.163Z,2.35
2019-05-11T20:18:08.010Z,2.40
2019-05-11T20:20:37.653Z,2.47
2019-05-11T20:23:07.837Z,2.90
2019-05-11T20:25:37.996Z,2.10
2019-05-11T20:28:08.452Z,2.40
2019-05-11T20:30:41.778Z,1.87
2019-05-11T20:33:10.742Z,2.10
2019-05-11T20:35:39.183Z,1.87
2019-05-11T20:38:08.684Z,1.98
2019-05-11T20:40:38.931Z,3.02
2019-05-11T20:43:08.104Z,2.30
2019-05-11T20:45:37.795Z,2.33
2019-05-11T20:48:07.975Z,2.05
2019-05-11T20:50:37.912Z,2.40
2019-05-11T20:53:08.402Z,1.82
2019-05-11T20:55:37.637Z,1.90
2019-05-11T20:58:08.449Z,2.45
2019-05-11T21:00:38.336Z,14.98
2019-05-11T21:03:08.881Z,3.37
2019-05-11T21:05:37.367Z,2.50
2019-05-11T21:08:08.304Z,2.08
2019-05-11T21:10:38.577Z,1.90
2019-05-11T21:13:08.590Z,2.30
2019-05-11T21:15:38.450Z,2.05
2019-05-11T21:18:07.896Z,2.00
2019-05-11T21:20:38.087Z,2.20
2019-05-11T21:23:08.177Z,2.05
2019-05-11T21:25:37.856Z,3.00
2019-05-11T21:28:08.554Z,2.27
2019-05-11T21:30:39.667Z,2.05
2019-05-11T21:33:08.621Z,1.92
2019-05-11T21:35:38.597Z,2.47
2019-05-11T21:38:08.431Z,1.85
2019-05-11T21:40:38.117Z,1.80
2019-05-11T21:43:08.700Z,2.00
2019-05-11T21:45:41.225Z,2.20
2019-05-11T21:48:09.660Z,21.17
2019-05-11T21:50:38.875Z,4.17
2019-05-11T21:53:08.164Z,2.98
2019-05-11T21:55:37.884Z,2.77
2019-05-11T21:58:08.885Z,2.47
2019-05-11T22:00:38.743Z,2.08
2019-05-11T22:03:09.897Z,2.33
2019-05-11T22:05:41.687Z,2.10
2019-05-11T22:08:10.116Z,2.80
2019-05-11T22:10:38.731Z,2.37
2019-05-11T22:13:07.385Z,2.25
2019-05-11T22:15:38.328Z,3.00
2019-05-11T22:18:07.997Z,2.30
2019-05-11T22:20:40.488Z,2.95
2019-05-11T22:23:08.439Z,21.57
2019-05-11T22:25:38.203Z,6.65
2019-05-11T22:28:08.474Z,6.67
2019-05-11T22:30:39.084Z,3.02
2019-05-11T22:33:08.755Z,2.70
2019-05-11T22:35:38.580Z,3.85
2019-05-11T22:38:08.362Z,3.45
2019-05-11T22:40:38.397Z,3.10
2019-05-11T22:43:09.267Z,3.02
2019-05-11T22:45:38.294Z,5.70
2019-05-11T22:48:08.052Z,5.58
2019-05-11T22:50:38.427Z,3.05
2019-05-11T22:53:08.644Z,2.98
2019-05-11T22:55:38.162Z,2.77
2019-05-11T22:58:08.569Z,3.15
2019-05-11T23:00:42.977Z,3.12
2019-05-11T23:03:11.845Z,3.37
2019-05-11T23:05:41.860Z,2.77
2019-05-11T23:08:11.033Z,2.75
2019-05-11T23:10:39.504Z,3.10
2019-05-11T23:13:11.106Z,2.98
2019-05-11T23:15:40.647Z,3.20
2019-05-11T23:18:09.224Z,3.03
2019-05-11T23:20:38.687Z,2.80
2019-05-11T23:23:08.825Z,2.92
2019-05-11T23:25:37.471Z,4.58
2019-05-11T23:28:05.975Z,3.92
2019-05-11T23:30:34.622Z,7.53
2019-05-11T23:33:03.044Z,3.15
2019-05-11T23:35:31.831Z,3.25
2019-05-11T23:38:00.728Z,5.22
2019-05-11T23:40:29.134Z,3.05
2019-05-11T23:42:57.946Z,3.47
2019-05-11T23:45:28.027Z,3.15
2019-05-11T23:47:58.668Z,3.25
2019-05-11T23:50:28.222Z,7.25
2019-05-11T23:53:06.443Z,3.72
2019-05-11T23:55:29.129Z,4.33
2019-05-11T23:57:57.804Z,2.95
